createdAt,value
2018-03-07T00:00:32.150Z,6.97
2018-03-07T00:03:00.496Z,6.95
2018-03-07T00:05:28.874Z,7.05
2018-03-07T00:07:57.998Z,7.12
2018-03-07T00:10:26.321Z,7.08
2018-03-07T00:12:54.658Z,7.10
2018-03-07T00:15:23.078Z,7.23
2018-03-07T00:17:51.420Z,7.37
2018-03-07T00:20:19.768Z,7.32
2018-03-07T00:22:48.168Z,7.32
2018-03-07T00:25:16.486Z,7.39
2018-03-07T00:27:44.821Z,7.25
2018-03-07T00:30:13.164Z,7.32
2018-03-07T00:32:41.494Z,7.18
2018-03-07T00:35:09.849Z,7.03
2018-03-07T00:37:39.441Z,7.22
2018-03-07T00:40:07.798Z,7.08
2018-03-07T00:42:44.729Z,6.96
2018-03-07T00:45:22.294Z,6.95
2018-03-07T00:47:51.031Z,6.92
2018-03-07T00:50:19.333Z,6.97
2018-03-07T00:52:47.654Z,6.88
2018-03-07T00:55:16.102Z,6.92
2018-03-07T00:57:44.448Z,6.93
2018-03-07T01:00:12.785Z,6.88
2018-03-07T01:02:41.295Z,6.90
2018-03-07T01:05:09.621Z,6.95
2018-03-07T01:07:38.737Z,6.97
2018-03-07T01:10:07.123Z,7.01
2018-03-07T01:12:35.533Z,7.08
2018-03-07T01:15:03.841Z,7.03
2018-03-07T01:17:32.769Z,7.02
2018-03-07T01:20:01.110Z,6.84
2018-03-07T01:22:29.461Z,6.91
2018-03-07T01:24:57.816Z,6.87
2018-03-07T01:27:26.158Z,6.84
2018-03-07T01:29:54.484Z,6.75
2018-03-07T01:32:22.842Z,6.93
2018-03-07T01:34:52.279Z,6.86
2018-03-07T01:37:20.610Z,6.95
2018-03-07T01:39:49.785Z,6.98
2018-03-07T01:42:18.116Z,6.82
2018-03-07T01:44:46.441Z,6.64
2018-03-07T01:47:14.797Z,6.77
2018-03-07T01:49:43.151Z,6.72
2018-03-07T01:52:11.482Z,6.53
2018-03-07T01:54:39.861Z,6.50
2018-03-07T01:57:08.206Z,6.55
2018-03-07T01:59:36.536Z,6.46
2018-03-07T02:02:05.947Z,6.53
2018-03-07T02:04:34.263Z,6.55
2018-03-07T02:07:02.583Z,6.33
2018-03-07T02:09:30.954Z,6.30
2018-03-07T02:11:59.269Z,6.52
2018-03-07T02:14:27.612Z,6.51
2018-03-07T02:16:55.955Z,6.52
2018-03-07T02:19:24.277Z,6.43
2018-03-07T02:21:52.619Z,6.34
2018-03-07T02:24:21.261Z,6.27
2018-03-07T02:26:49.688Z,6.30
2018-03-07T02:29:18.009Z,6.36
2018-03-07T02:31:47.109Z,6.38
2018-03-07T02:34:16.217Z,6.39
2018-03-07T02:36:44.548Z,6.48
2018-03-07T02:39:12.909Z,6.57
2018-03-07T02:41:41.251Z,6.48
2018-03-07T02:44:10.341Z,6.47
2018-03-07T02:46:39.025Z,6.34
2018-03-07T02:49:07.397Z,6.41
2018-03-07T02:51:36.478Z,6.43
2018-03-07T02:54:04.824Z,6.18
2018-03-07T02:56:33.143Z,6.27
2018-03-07T02:59:01.518Z,5.88
2018-03-07T03:01:29.860Z,5.69
2018-03-07T03:03:58.201Z,6.03
2018-03-07T03:06:26.517Z,6.08
2018-03-07T03:08:54.996Z,6.06
2018-03-07T03:11:23.347Z,6.19
2018-03-07T03:13:51.690Z,6.21
2018-03-07T03:16:20.048Z,6.15
2018-03-07T03:18:48.398Z,6.17
2018-03-07T03:21:16.978Z,6.13
2018-03-07T03:23:45.341Z,6.14
2018-03-07T03:26:14.455Z,6.08
2018-03-07T03:28:42.809Z,6.04
2018-03-07T03:31:11.518Z,5.93
2018-03-07T03:33:39.853Z,6.07
2018-03-07T03:36:08.227Z,5.93
2018-03-07T03:38:36.605Z,6.07
2018-03-07T03:41:04.933Z,6.07
2018-03-07T03:43:33.258Z,6.26
2018-03-07T03:46:01.642Z,6.29
2018-03-07T03:48:29.985Z,6.29
2018-03-07T03:50:58.315Z,6.17
2018-03-07T03:53:27.196Z,6.04
2018-03-07T03:55:55.512Z,6.15
2018-03-07T03:58:23.888Z,6.11
2018-03-07T04:00:52.246Z,6.11
2018-03-07T04:03:21.359Z,6.21
2018-03-07T04:05:49.697Z,6.27
2018-03-07T04:08:18.083Z,6.47
2018-03-07T04:10:46.396Z,6.45
2018-03-07T04:13:15.493Z,6.34
2018-03-07T04:15:44.974Z,6.32
2018-03-07T04:18:13.276Z,6.18
2018-03-07T04:20:41.589Z,6.33
2018-03-07T04:23:09.929Z,6.47
2018-03-07T04:25:38.254Z,6.41
2018-03-07T04:28:06.776Z,6.20
2018-03-07T04:30:35.121Z,6.33
2018-03-07T04:33:03.517Z,6.34
2018-03-07T04:35:31.858Z,6.34
2018-03-07T04:38:00.352Z,6.35
2018-03-07T04:40:28.724Z,6.30
2018-03-07T04:42:57.060Z,6.43
2018-03-07T04:45:25.429Z,6.39
2018-03-07T04:47:54.678Z,6.47
2018-03-07T04:50:22.992Z,6.38
2018-03-07T04:52:51.367Z,6.21
2018-03-07T04:55:19.689Z,6.23
2018-03-07T04:57:48.025Z,6.17
2018-03-07T05:00:16.856Z,6.11
2018-03-07T05:02:45.242Z,5.90
2018-03-07T05:05:13.540Z,5.82
2018-03-07T05:07:41.880Z,5.92
2018-03-07T05:10:10.974Z,5.92
2018-03-07T05:12:39.296Z,6.06
2018-03-07T05:15:07.669Z,5.96
2018-03-07T05:17:36.011Z,6.00
2018-03-07T05:20:05.112Z,6.02
2018-03-07T05:22:33.826Z,6.07
2018-03-07T05:25:02.185Z,6.10
2018-03-07T05:27:30.524Z,6.24
2018-03-07T05:29:58.901Z,6.32
2018-03-07T05:32:27.281Z,6.27
2018-03-07T05:34:55.615Z,5.87
2018-03-07T05:37:23.961Z,6.09
2018-03-07T05:39:53.020Z,6.19
2018-03-07T05:42:21.354Z,6.13
2018-03-07T05:44:49.984Z,6.20
2018-03-07T05:47:18.334Z,6.08
2018-03-07T05:49:46.703Z,6.09
2018-03-07T05:52:15.076Z,6.08
2018-03-07T05:54:44.184Z,6.25
2018-03-07T05:57:12.505Z,6.36
2018-03-07T05:59:40.868Z,6.25
2018-03-07T06:02:09.268Z,6.22
2018-03-07T06:04:37.624Z,6.17
2018-03-07T06:07:07.234Z,6.13
2018-03-07T06:09:35.547Z,5.93
2018-03-07T06:12:03.881Z,5.97
2018-03-07T06:14:32.221Z,6.02
2018-03-07T06:17:01.286Z,6.16
2018-03-07T06:19:29.630Z,6.28
2018-03-07T06:21:57.995Z,6.24
2018-03-07T06:24:26.367Z,6.25
2018-03-07T06:26:54.739Z,6.16
2018-03-07T06:29:23.262Z,6.17
2018-03-07T06:31:51.610Z,6.04
2018-03-07T06:34:19.944Z,5.99
2018-03-07T06:36:48.292Z,6.20
2018-03-07T06:39:16.600Z,6.13
2018-03-07T06:41:44.922Z,6.09
2018-03-07T06:44:13.265Z,5.95
2018-03-07T06:46:41.573Z,5.96
2018-03-07T06:49:09.892Z,6.11
2018-03-07T06:51:38.617Z,6.15
2018-03-07T06:54:06.912Z,6.29
2018-03-07T06:56:36.037Z,6.48
2018-03-07T06:59:04.386Z,6.40
2018-03-07T07:01:33.491Z,6.29
2018-03-07T07:04:01.839Z,6.46
2018-03-07T07:06:30.206Z,6.26
2018-03-07T07:08:58.565Z,6.27
2018-03-07T07:11:26.944Z,6.43
2018-03-07T07:13:55.512Z,6.58
2018-03-07T07:16:23.815Z,6.63
2018-03-07T07:18:52.161Z,6.45
2018-03-07T07:21:20.553Z,6.62
2018-03-07T07:23:48.884Z,6.64
2018-03-07T07:26:18.040Z,6.67
2018-03-07T07:28:46.437Z,6.55
2018-03-07T07:31:14.778Z,6.58
2018-03-07T07:33:43.158Z,6.60
2018-03-07T07:36:11.822Z,6.53
2018-03-07T07:38:40.123Z,6.60
2018-03-07T07:41:08.478Z,6.59
2018-03-07T07:43:36.866Z,6.55
2018-03-07T07:46:05.157Z,6.44
2018-03-07T07:48:34.258Z,6.60
2018-03-07T07:51:02.634Z,6.62
2018-03-07T07:53:30.986Z,6.59
2018-03-07T07:56:00.162Z,6.56
2018-03-07T07:58:28.785Z,6.48
2018-03-07T08:00:57.137Z,6.80
2018-03-07T08:03:26.213Z,6.97
2018-03-07T08:05:54.640Z,6.90
2018-03-07T08:08:23.723Z,6.88
2018-03-07T08:10:52.037Z,6.68
2018-03-07T08:13:20.419Z,6.83
2018-03-07T08:15:48.853Z,6.92
2018-03-07T08:18:18.015Z,6.91
2018-03-07T08:20:47.155Z,7.01
2018-03-07T08:23:15.504Z,6.73
2018-03-07T08:25:43.816Z,6.86
2018-03-07T08:28:12.474Z,6.82
2018-03-07T08:30:40.772Z,6.89
2018-03-07T08:33:09.855Z,6.56
2018-03-07T08:35:38.962Z,6.96
2018-03-07T08:38:08.068Z,6.98
2018-03-07T08:40:36.512Z,6.73
2018-03-07T08:43:05.114Z,6.76
2018-03-07T08:45:33.440Z,7.15
2018-03-07T08:48:01.779Z,7.19
2018-03-07T08:50:30.967Z,7.26
2018-03-07T08:52:59.315Z,7.40
2018-03-07T08:55:27.633Z,7.26
2018-03-07T08:57:56.743Z,7.12
2018-03-07T09:00:25.075Z,7.07
2018-03-07T09:02:53.406Z,7.21
2018-03-07T09:05:22.083Z,7.35
2018-03-07T09:07:50.430Z,7.21
2018-03-07T09:10:18.780Z,7.04
2018-03-07T09:12:47.116Z,6.80
2018-03-07T09:15:16.225Z,6.96
2018-03-07T09:17:44.564Z,7.30
2018-03-07T09:20:12.922Z,7.27
2018-03-07T09:22:41.289Z,7.19
2018-03-07T09:25:09.628Z,7.13
2018-03-07T09:27:39.125Z,6.89
2018-03-07T09:30:08.262Z,7.10
2018-03-07T09:32:36.614Z,7.18
2018-03-07T09:35:05.001Z,7.03
2018-03-07T09:37:33.369Z,7.26
2018-03-07T09:40:01.714Z,7.22
2018-03-07T09:42:30.829Z,7.11
2018-03-07T09:44:59.941Z,7.26
2018-03-07T09:47:28.272Z,7.13
2018-03-07T09:49:56.765Z,7.13
2018-03-07T09:52:25.098Z,7.15
2018-03-07T09:54:53.478Z,6.91
2018-03-07T09:57:21.832Z,7.18
2018-03-07T09:59:50.199Z,7.22
2018-03-07T10:02:19.299Z,6.92
2018-03-07T10:04:48.448Z,7.08
2018-03-07T10:07:16.774Z,7.01
2018-03-07T10:09:45.863Z,6.91
2018-03-07T10:12:14.472Z,7.13
2018-03-07T10:14:42.820Z,7.07
2018-03-07T10:17:11.165Z,7.06
2018-03-07T10:19:39.548Z,7.01
2018-03-07T10:22:07.883Z,7.10
2018-03-07T10:24:36.240Z,6.97
2018-03-07T10:27:05.360Z,7.23
2018-03-07T10:29:34.442Z,7.30
2018-03-07T10:32:03.551Z,7.31
2018-03-07T10:34:32.105Z,7.26
2018-03-07T10:37:00.445Z,7.28
2018-03-07T10:39:28.762Z,7.10
2018-03-07T10:41:57.139Z,7.05
2018-03-07T10:44:25.492Z,6.93
2018-03-07T10:46:53.841Z,6.83
2018-03-07T10:49:22.235Z,7.07
2018-03-07T10:51:50.593Z,7.11
2018-03-07T10:54:18.928Z,6.97
2018-03-07T10:56:47.668Z,7.23
2018-03-07T10:59:16.002Z,7.19
2018-03-07T11:01:44.342Z,7.04
2018-03-07T11:04:12.701Z,7.00
2018-03-07T11:06:41.077Z,7.03
2018-03-07T11:09:09.425Z,7.16
2018-03-07T11:11:37.812Z,7.19
2018-03-07T11:14:06.889Z,7.26
2018-03-07T11:16:35.233Z,7.34
2018-03-07T11:19:03.852Z,7.25
2018-03-07T11:21:32.161Z,7.37
2018-03-07T11:24:01.300Z,7.51
2018-03-07T11:26:29.659Z,7.55
2018-03-07T11:28:58.012Z,7.58
2018-03-07T11:31:26.374Z,7.49
2018-03-07T11:33:54.869Z,7.35
2018-03-07T11:36:23.218Z,7.38
2018-03-07T11:38:51.570Z,7.48
2018-03-07T11:41:20.324Z,7.56
2018-03-07T11:43:48.673Z,7.54
2018-03-07T11:46:17.014Z,7.52
2018-03-07T11:48:45.359Z,7.45
2018-03-07T11:51:14.441Z,7.65
2018-03-07T11:53:42.794Z,7.70
2018-03-07T11:56:11.172Z,7.44
2018-03-07T11:58:39.497Z,7.43
2018-03-07T12:01:07.832Z,7.72
2018-03-07T12:03:36.252Z,7.60
2018-03-07T12:06:04.620Z,7.67
2018-03-07T12:08:33.006Z,7.74
2018-03-07T12:11:01.368Z,7.78
2018-03-07T12:13:29.674Z,7.73
2018-03-07T12:15:58.020Z,7.65
2018-03-07T12:18:26.417Z,7.91
2018-03-07T12:20:55.504Z,8.08
2018-03-07T12:23:24.621Z,8.04
2018-03-07T12:25:53.381Z,8.02
2018-03-07T12:28:21.712Z,8.00
2018-03-07T12:30:50.238Z,8.02
2018-03-07T12:33:18.605Z,8.05
2018-03-07T12:35:46.922Z,8.11
2018-03-07T12:38:15.255Z,8.12
2018-03-07T12:40:43.625Z,8.10
2018-03-07T12:43:11.980Z,8.23
2018-03-07T12:45:40.331Z,8.30
2018-03-07T12:48:08.930Z,8.47
2018-03-07T12:50:37.238Z,8.63
2018-03-07T12:53:05.647Z,8.55
2018-03-07T12:55:34.022Z,8.61
2018-03-07T12:58:02.342Z,8.61
2018-03-07T13:00:31.451Z,8.70
2018-03-07T13:02:59.813Z,8.53
2018-03-07T13:05:28.158Z,8.45
2018-03-07T13:07:56.464Z,8.40
2018-03-07T13:10:25.908Z,8.36
2018-03-07T13:12:54.259Z,8.33
2018-03-07T13:15:22.630Z,8.29
2018-03-07T13:17:50.997Z,8.09
2018-03-07T13:20:20.244Z,7.97
2018-03-07T13:22:48.597Z,8.09
2018-03-07T13:25:16.974Z,8.23
2018-03-07T13:27:45.334Z,8.39
2018-03-07T13:30:14.439Z,8.59
2018-03-07T13:32:43.954Z,8.55
2018-03-07T13:35:13.022Z,8.45
2018-03-07T13:37:42.113Z,8.23
2018-03-07T13:40:10.488Z,8.29
2018-03-07T13:42:38.846Z,8.39
2018-03-07T13:45:07.190Z,8.52
2018-03-07T13:47:35.546Z,8.46
2018-03-07T13:50:03.874Z,8.41
2018-03-07T13:52:32.212Z,8.49
2018-03-07T13:55:01.425Z,8.45
2018-03-07T13:57:29.785Z,8.13
2018-03-07T13:59:58.857Z,8.29
2018-03-07T14:02:27.237Z,8.22
2018-03-07T14:04:55.551Z,8.21
2018-03-07T14:07:23.893Z,8.23
2018-03-07T14:09:52.321Z,8.23
2018-03-07T14:12:20.664Z,8.17
2018-03-07T14:14:49.742Z,8.09
2018-03-07T14:17:18.296Z,8.28
2018-03-07T14:19:46.617Z,8.23
2018-03-07T14:22:14.965Z,8.32
2018-03-07T14:24:43.370Z,8.31
2018-03-07T14:27:11.694Z,8.16
2018-03-07T14:29:40.044Z,8.25
2018-03-07T14:32:08.396Z,8.21
2018-03-07T14:34:36.728Z,8.21
2018-03-07T14:37:05.053Z,8.21
2018-03-07T14:39:33.684Z,8.20
2018-03-07T14:42:02.037Z,8.04
2018-03-07T14:44:31.117Z,8.07
2018-03-07T14:46:59.475Z,8.12
2018-03-07T14:49:27.822Z,8.15
2018-03-07T14:51:56.149Z,8.15
2018-03-07T14:54:24.545Z,8.10
2018-03-07T14:56:52.891Z,7.81
2018-03-07T14:59:21.210Z,7.98
2018-03-07T15:01:50.827Z,8.09
2018-03-07T15:04:19.172Z,8.09
2018-03-07T15:06:47.482Z,7.93
2018-03-07T15:09:16.584Z,8.02
2018-03-07T15:11:45.658Z,8.04
2018-03-07T15:14:14.744Z,7.98
2018-03-07T15:16:43.134Z,8.08
2018-03-07T15:19:11.474Z,8.09
2018-03-07T15:21:39.824Z,8.00
2018-03-07T15:24:08.630Z,7.83
2018-03-07T15:26:36.999Z,7.84
2018-03-07T15:29:05.327Z,8.00
2018-03-07T15:31:33.717Z,8.04
2018-03-07T15:34:02.058Z,7.86
2018-03-07T15:36:30.390Z,8.00
2018-03-07T15:38:59.518Z,7.92
2018-03-07T15:41:27.857Z,7.84
2018-03-07T15:43:56.971Z,7.83
2018-03-07T15:46:25.941Z,7.66
2018-03-07T15:48:54.312Z,7.81
2018-03-07T15:51:22.664Z,7.73
2018-03-07T15:53:51.097Z,7.66
2018-03-07T15:56:20.200Z,7.71
2018-03-07T15:58:48.566Z,7.72
2018-03-07T16:01:16.924Z,7.77
2018-03-07T16:03:45.288Z,7.75
2018-03-07T16:06:13.650Z,8.04
2018-03-07T16:08:42.350Z,7.95
2018-03-07T16:11:10.680Z,7.73
2018-03-07T16:13:39.037Z,7.67
2018-03-07T16:16:07.400Z,7.99
2018-03-07T16:18:35.797Z,7.81
2018-03-07T16:21:04.136Z,7.81
2018-03-07T16:23:32.487Z,7.78
2018-03-07T16:26:00.930Z,7.92
2018-03-07T16:28:30.011Z,7.84
2018-03-07T16:30:58.744Z,7.81
2018-03-07T16:33:27.082Z,7.66
2018-03-07T16:35:55.455Z,7.55
2018-03-07T16:38:23.839Z,7.54
2018-03-07T16:40:52.217Z,7.56
2018-03-07T16:43:20.538Z,7.63
2018-03-07T16:45:49.660Z,7.62
2018-03-07T16:48:18.006Z,7.69
2018-03-07T16:50:46.401Z,7.68
2018-03-07T16:53:14.868Z,7.70
2018-03-07T16:55:43.221Z,7.58
2018-03-07T16:58:11.577Z,7.53
2018-03-07T17:00:39.935Z,7.53
2018-03-07T17:03:08.266Z,7.51
2018-03-07T17:05:37.377Z,7.62
2018-03-07T17:08:05.793Z,7.67
2018-03-07T17:10:34.223Z,7.60
2018-03-07T17:13:03.318Z,7.36
2018-03-07T17:15:31.862Z,7.32
2018-03-07T17:18:00.221Z,7.46
2018-03-07T17:20:28.554Z,7.55
2018-03-07T17:22:56.928Z,7.54
2018-03-07T17:25:25.288Z,7.51
2018-03-07T17:27:53.630Z,7.39
2018-03-07T17:30:21.983Z,7.37
2018-03-07T17:32:50.327Z,7.44
2018-03-07T17:35:18.675Z,7.53
2018-03-07T17:37:47.424Z,7.41
2018-03-07T17:40:16.536Z,7.44
2018-03-07T17:42:44.851Z,7.22
2018-03-07T17:45:13.484Z,7.32
2018-03-07T17:47:41.838Z,7.33
2018-03-07T17:50:10.179Z,7.18
2018-03-07T17:52:38.541Z,7.21
2018-03-07T17:55:06.857Z,7.18
2018-03-07T17:57:35.218Z,6.87
2018-03-07T18:00:03.973Z,7.27
2018-03-07T18:02:32.301Z,7.37
2018-03-07T18:05:00.638Z,7.37
2018-03-07T18:07:29.051Z,7.33
2018-03-07T18:09:57.426Z,7.22
2018-03-07T18:12:25.773Z,7.32
2018-03-07T18:14:54.148Z,7.24
2018-03-07T18:17:23.260Z,7.31
2018-03-07T18:19:51.585Z,7.38
2018-03-07T18:22:20.124Z,7.34
2018-03-07T18:24:48.481Z,7.28
2018-03-07T18:27:17.589Z,7.21
2018-03-07T18:29:45.974Z,7.08
2018-03-07T18:32:15.094Z,7.10
2018-03-07T18:34:43.441Z,7.30
2018-03-07T18:37:11.819Z,7.28
2018-03-07T18:39:40.182Z,7.23
2018-03-07T18:42:09.302Z,7.06
2018-03-07T18:44:37.912Z,6.98
2018-03-07T18:47:06.281Z,6.70
2018-03-07T18:49:34.617Z,6.79
2018-03-07T18:52:02.997Z,6.87
2018-03-07T18:54:32.127Z,7.01
2018-03-07T18:57:00.486Z,6.94
2018-03-07T18:59:29.623Z,6.90
2018-03-07T19:01:57.985Z,6.62
2018-03-07T19:04:26.364Z,6.73
2018-03-07T19:06:54.841Z,6.80
2018-03-07T19:09:23.159Z,7.01
2018-03-07T19:11:51.486Z,7.21
2018-03-07T19:14:19.905Z,7.07
2018-03-07T19:16:48.255Z,6.61
2018-03-07T19:19:16.830Z,6.57
2018-03-07T19:21:45.992Z,6.69
2018-03-07T19:24:15.800Z,6.63
2018-03-07T19:26:44.237Z,6.66
2018-03-07T19:29:12.774Z,6.44
2018-03-07T19:31:41.961Z,6.45
2018-03-07T19:34:10.766Z,6.57
2018-03-07T19:36:39.109Z,6.45
2018-03-07T19:39:07.449Z,6.74
2018-03-07T19:41:36.553Z,6.78
2018-03-07T19:44:04.921Z,6.81
2018-03-07T19:46:33.300Z,6.79
2018-03-07T19:49:01.628Z,6.76
2018-03-07T19:51:30.045Z,6.74
2018-03-07T19:53:59.153Z,6.82
2018-03-07T19:56:27.517Z,7.01
2018-03-07T19:58:56.675Z,6.99
2018-03-07T20:01:25.005Z,6.92
2018-03-07T20:03:54.247Z,6.82
2018-03-07T20:06:22.588Z,6.77
2018-03-07T20:08:51.870Z,6.50
2018-03-07T20:11:20.322Z,6.53
2018-03-07T20:13:49.447Z,6.48
2018-03-07T20:16:17.785Z,6.54
2018-03-07T20:18:46.134Z,6.41
2018-03-07T20:21:15.213Z,6.34
2018-03-07T20:23:43.561Z,6.25
2018-03-07T20:26:11.893Z,6.27
2018-03-07T20:28:41.177Z,6.38
2018-03-07T20:31:10.310Z,6.35
2018-03-07T20:33:38.733Z,6.50
2018-03-07T20:36:07.309Z,6.58
2018-03-07T20:38:35.643Z,6.41
2018-03-07T20:41:04.089Z,6.40
2018-03-07T20:43:33.253Z,6.40
2018-03-07T20:46:01.618Z,6.39
2018-03-07T20:48:29.995Z,6.34
2018-03-07T20:50:58.385Z,6.44
2018-03-07T20:53:26.724Z,6.36
2018-03-07T20:55:55.077Z,6.22
2018-03-07T20:58:24.288Z,6.18
2018-03-07T21:00:52.611Z,6.10
2018-03-07T21:03:20.950Z,6.31
2018-03-07T21:05:50.082Z,6.36
2018-03-07T21:08:18.482Z,6.47
2018-03-07T21:10:46.832Z,6.31
2018-03-07T21:13:15.211Z,6.23
2018-03-07T21:15:43.560Z,6.42
2018-03-07T21:18:12.746Z,6.38
2018-03-07T21:20:41.445Z,6.29
2018-03-07T21:23:09.758Z,6.35
2018-03-07T21:25:38.145Z,6.41
2018-03-07T21:28:06.515Z,6.46
2018-03-07T21:30:34.876Z,6.45
2018-03-07T21:33:03.209Z,6.51
2018-03-07T21:35:31.547Z,6.54
2018-03-07T21:37:59.898Z,6.44
2018-03-07T21:40:28.994Z,6.41
2018-03-07T21:42:58.152Z,6.19
2018-03-07T21:45:26.731Z,6.13
2018-03-07T21:47:55.339Z,6.08
2018-03-07T21:50:23.726Z,6.02
2018-03-07T21:52:52.835Z,5.92
2018-03-07T21:55:21.961Z,5.78
2018-03-07T21:57:50.326Z,5.44
2018-03-07T22:00:18.670Z,5.53
2018-03-07T22:02:47.025Z,5.58
2018-03-07T22:05:15.580Z,5.27
2018-03-07T22:07:43.925Z,5.57
2018-03-07T22:10:13.025Z,5.35
2018-03-07T22:12:42.210Z,5.65
2018-03-07T22:15:11.326Z,5.80
2018-03-07T22:17:39.648Z,5.77
2018-03-07T22:20:07.985Z,5.70
2018-03-07T22:22:37.105Z,5.80
2018-03-07T22:25:05.455Z,5.82
2018-03-07T22:27:33.872Z,6.00
2018-03-07T22:30:02.282Z,6.09
2018-03-07T22:32:30.633Z,6.08
2018-03-07T22:34:59.030Z,5.96
2018-03-07T22:37:27.352Z,5.91
2018-03-07T22:39:56.458Z,5.98
2018-03-07T22:42:25.575Z,6.02
2018-03-07T22:44:53.898Z,6.05
2018-03-07T22:47:22.241Z,6.11
2018-03-07T22:49:50.814Z,6.24
2018-03-07T22:52:19.177Z,6.22
2018-03-07T22:54:47.506Z,6.27
2018-03-07T22:57:15.891Z,6.17
2018-03-07T22:59:44.189Z,6.09
2018-03-07T23:02:12.498Z,6.08
2018-03-07T23:04:40.839Z,6.20
2018-03-07T23:07:09.178Z,6.35
2018-03-07T23:09:37.513Z,6.25
2018-03-07T23:12:06.856Z,6.31
2018-03-07T23:14:35.194Z,6.25
2018-03-07T23:17:04.291Z,6.40
2018-03-07T23:19:33.473Z,6.28
2018-03-07T23:22:01.816Z,6.46
2018-03-07T23:24:30.128Z,6.37
2018-03-07T23:26:58.488Z,6.23
2018-03-07T23:29:26.830Z,6.27
2018-03-07T23:31:55.155Z,6.40
2018-03-07T23:34:23.967Z,6.40
2018-03-07T23:36:52.310Z,6.40
2018-03-07T23:39:20.620Z,6.32
2018-03-07T23:41:49.738Z,6.32
2018-03-07T23:44:18.076Z,6.40
2018-03-07T23:46:46.389Z,6.47
2018-03-07T23:49:14.772Z,6.41
2018-03-07T23:51:43.876Z,6.51
2018-03-07T23:54:12.275Z,6.57
2018-03-07T23:56:40.718Z,6.52
2018-03-07T23:59:09.057Z,6.42
